sensor_id;sensor_type;location;lat;lon;timestamp;P1;durP1;ratioP1;P2;durP2;ratioP2
54412;SDS011;41533;51.390;0.074;2023-03-14T00:01:38;15.88;;;3.47;;
54412;SDS011;41533;51.390;0.074;2023-03-14T00:04:06;20.23;;;2.13;;
54412;SDS011;41533;51.390;0.074;2023-03-14T00:06:34;11.38;;;2.40;;
54412;SDS011;41533;51.390;0.074;2023-03-14T00:09:02;12.15;;;2.05;;
54412;SDS011;41533;51.390;0.074;2023-03-14T00:11:29;12.25;;;2.92;;
54412;SDS011;41533;51.390;0.074;2023-03-14T00:13:57;11.68;;;3.30;;
54412;SDS011;41533;51.390;0.074;2023-03-14T00:16:25;17.05;;;2.90;;
54412;SDS011;41533;51.390;0.074;2023-03-14T00:18:53;16.00;;;3.17;;
54412;SDS011;41533;51.390;0.074;2023-03-14T00:21:20;9.45;;;2.47;;
54412;SDS011;41533;51.390;0.074;2023-03-14T00:23:47;12.25;;;3.05;;
54412;SDS011;41533;51.390;0.074;2023-03-14T00:26:15;17.88;;;3.53;;
54412;SDS011;41533;51.390;0.074;2023-03-14T00:28:43;18.50;;;2.72;;
54412;SDS011;41533;51.390;0.074;2023-03-14T00:31:11;12.07;;;2.63;;
54412;SDS011;41533;51.390;0.074;2023-03-14T00:33:41;9.02;;;2.55;;
54412;SDS011;41533;51.390;0.074;2023-03-14T00:36:09;14.73;;;2.38;;
54412;SDS011;41533;51.390;0.074;2023-03-14T00:38:37;10.93;;;2.42;;
54412;SDS011;41533;51.390;0.074;2023-03-14T00:41:09;11.02;;;2.05;;
54412;SDS011;41533;51.390;0.074;2023-03-14T00:43:36;9.43;;;1.83;;
54412;SDS011;41533;51.390;0.074;2023-03-14T00:46:04;7.22;;;2.17;;
54412;SDS011;41533;51.390;0.074;2023-03-14T00:48:31;9.00;;;2.45;;
54412;SDS011;41533;51.390;0.074;2023-03-14T00:51:01;7.43;;;2.15;;
54412;SDS011;41533;51.390;0.074;2023-03-14T00:53:28;13.80;;;2.05;;
54412;SDS011;41533;51.390;0.074;2023-03-14T00:55:55;7.50;;;2.03;;
54412;SDS011;41533;51.390;0.074;2023-03-14T00:58:22;5.55;;;1.30;;
54412;SDS011;41533;51.390;0.074;2023-03-14T01:00:50;5.57;;;1.83;;
54412;SDS011;41533;51.390;0.074;2023-03-14T01:03:17;6.47;;;1.73;;
54412;SDS011;41533;51.390;0.074;2023-03-14T01:05:44;6.15;;;1.48;;
54412;SDS011;41533;51.390;0.074;2023-03-14T01:08:11;7.45;;;1.52;;
54412;SDS011;41533;51.390;0.074;2023-03-14T01:10:39;4.53;;;0.98;;
54412;SDS011;41533;51.390;0.074;2023-03-14T01:13:07;3.70;;;1.02;;
54412;SDS011;41533;51.390;0.074;2023-03-14T01:15:36;6.72;;;1.20;;
54412;SDS011;41533;51.390;0.074;2023-03-14T01:18:03;4.55;;;0.88;;
54412;SDS011;41533;51.390;0.074;2023-03-14T01:20:31;2.40;;;1.17;;
54412;SDS011;41533;51.390;0.074;2023-03-14T01:22:58;4.75;;;0.90;;
54412;SDS011;41533;51.390;0.074;2023-03-14T01:25:25;1.45;;;0.63;;
54412;SDS011;41533;51.390;0.074;2023-03-14T01:27:53;3.67;;;0.90;;
54412;SDS011;41533;51.390;0.074;2023-03-14T01:30:21;2.85;;;0.93;;
54412;SDS011;41533;51.390;0.074;2023-03-14T01:32:48;4.75;;;0.80;;
54412;SDS011;41533;51.390;0.074;2023-03-14T01:35:16;1.65;;;0.55;;
54412;SDS011;41533;51.390;0.074;2023-03-14T01:37:43;1.83;;;0.70;;
54412;SDS011;41533;51.390;0.074;2023-03-14T01:40:15;2.28;;;0.60;;
54412;SDS011;41533;51.390;0.074;2023-03-14T01:42:54;4.22;;;0.52;;
54412;SDS011;41533;51.390;0.074;2023-03-14T01:48:08;2.25;;;0.52;;
54412;SDS011;41533;51.390;0.074;2023-03-14T01:50:35;1.30;;;0.60;;
54412;SDS011;41533;51.390;0.074;2023-03-14T01:53:02;1.00;;;0.57;;
54412;SDS011;41533;51.390;0.074;2023-03-14T01:55:30;1.23;;;0.57;;
54412;SDS011;41533;51.390;0.074;2023-03-14T01:57:58;0.68;;;0.50;;
54412;SDS011;41533;51.390;0.074;2023-03-14T02:00:26;0.30;;;0.30;;
54412;SDS011;41533;51.390;0.074;2023-03-14T02:02:55;1.00;;;0.50;;
54412;SDS011;41533;51.390;0.074;2023-03-14T02:05:28;1.95;;;0.52;;
54412;SDS011;41533;51.390;0.074;2023-03-14T02:08:04;0.55;;;0.30;;
54412;SDS011;41533;51.390;0.074;2023-03-14T02:10:38;1.77;;;0.47;;
54412;SDS011;41533;51.390;0.074;2023-03-14T02:13:07;0.98;;;0.40;;
54412;SDS011;41533;51.390;0.074;2023-03-14T02:15:46;1.15;;;0.57;;
54412;SDS011;41533;51.390;0.074;2023-03-14T02:18:33;0.40;;;0.40;;
54412;SDS011;41533;51.390;0.074;2023-03-14T02:30:00;0.30;;;0.30;;
54412;SDS011;41533;51.390;0.074;2023-03-14T02:32:29;2.20;;;0.70;;
54412;SDS011;41533;51.390;0.074;2023-03-14T02:34:57;1.08;;;0.43;;
54412;SDS011;41533;51.390;0.074;2023-03-14T02:37:27;1.65;;;0.73;;
54412;SDS011;41533;51.390;0.074;2023-03-14T02:39:56;1.20;;;0.47;;
54412;SDS011;41533;51.390;0.074;2023-03-14T02:42:24;0.95;;;0.60;;
54412;SDS011;41533;51.390;0.074;2023-03-14T02:45:40;1.25;;;0.57;;
54412;SDS011;41533;51.390;0.074;2023-03-14T02:47:43;0.40;;;0.40;;
54412;SDS011;41533;51.390;0.074;2023-03-14T02:50:16;0.40;;;0.40;;
54412;SDS011;41533;51.390;0.074;2023-03-14T02:52:44;0.63;;;0.50;;
54412;SDS011;41533;51.390;0.074;2023-03-14T02:55:12;0.40;;;0.40;;
54412;SDS011;41533;51.390;0.074;2023-03-14T02:57:42;0.93;;;0.47;;
54412;SDS011;41533;51.390;0.074;2023-03-14T03:00:10;1.20;;;0.60;;
54412;SDS011;41533;51.390;0.074;2023-03-14T03:02:38;0.73;;;0.73;;
54412;SDS011;41533;51.390;0.074;2023-03-14T03:05:05;0.40;;;0.40;;
54412;SDS011;41533;51.390;0.074;2023-03-14T03:07:32;3.60;;;0.55;;
54412;SDS011;41533;51.390;0.074;2023-03-14T03:09:59;1.83;;;0.73;;
54412;SDS011;41533;51.390;0.074;2023-03-14T03:12:28;1.10;;;0.65;;
54412;SDS011;41533;51.390;0.074;2023-03-14T03:14:56;0.63;;;0.50;;
54412;SDS011;41533;51.390;0.074;2023-03-14T03:17:23;1.30;;;0.60;;
54412;SDS011;41533;51.390;0.074;2023-03-14T03:19:50;5.50;;;0.90;;
54412;SDS011;41533;51.390;0.074;2023-03-14T03:22:17;0.82;;;0.40;;
54412;SDS011;41533;51.390;0.074;2023-03-14T03:24:44;0.80;;;0.60;;
54412;SDS011;41533;51.390;0.074;2023-03-14T03:27:12;1.17;;;0.47;;
54412;SDS011;41533;51.390;0.074;2023-03-14T03:29:39;1.02;;;0.55;;
54412;SDS011;41533;51.390;0.074;2023-03-14T03:32:07;0.85;;;0.50;;
54412;SDS011;41533;51.390;0.074;2023-03-14T03:34:34;2.50;;;0.57;;
54412;SDS011;41533;51.390;0.074;2023-03-14T03:37:02;0.95;;;0.63;;
54412;SDS011;41533;51.390;0.074;2023-03-14T03:39:33;1.40;;;0.60;;
54412;SDS011;41533;51.390;0.074;2023-03-14T03:42:00;2.30;;;0.40;;
54412;SDS011;41533;51.390;0.074;2023-03-14T03:44:28;0.35;;;0.30;;
54412;SDS011;41533;51.390;0.074;2023-03-14T03:46:55;0.70;;;0.43;;
54412;SDS011;41533;51.390;0.074;2023-03-14T03:49:23;3.63;;;0.77;;
54412;SDS011;41533;51.390;0.074;2023-03-14T03:51:50;1.27;;;0.50;;
54412;SDS011;41533;51.390;0.074;2023-03-14T03:54:19;2.05;;;0.50;;
54412;SDS011;41533;51.390;0.074;2023-03-14T03:56:46;1.38;;;0.60;;
54412;SDS011;41533;51.390;0.074;2023-03-14T03:59:13;2.08;;;0.47;;
54412;SDS011;41533;51.390;0.074;2023-03-14T04:01:41;0.50;;;0.50;;
54412;SDS011;41533;51.390;0.074;2023-03-14T04:04:08;0.47;;;0.47;;
54412;SDS011;41533;51.390;0.074;2023-03-14T04:06:36;0.38;;;0.38;;
54412;SDS011;41533;51.390;0.074;2023-03-14T04:09:04;2.38;;;0.98;;
54412;SDS011;41533;51.390;0.074;2023-03-14T04:11:42;1.52;;;0.40;;
54412;SDS011;41533;51.390;0.074;2023-03-14T04:14:21;1.45;;;0.68;;
54412;SDS011;41533;51.390;0.074;2023-03-14T04:17:01;0.90;;;0.50;;
54412;SDS011;41533;51.390;0.074;2023-03-14T04:19:29;2.50;;;0.57;;
54412;SDS011;41533;51.390;0.074;2023-03-14T04:21:56;3.80;;;1.17;;
54412;SDS011;41533;51.390;0.074;2023-03-14T04:24:27;0.93;;;0.50;;
54412;SDS011;41533;51.390;0.074;2023-03-14T04:26:56;1.83;;;0.80;;
54412;SDS011;41533;51.390;0.074;2023-03-14T04:29:25;1.23;;;0.70;;
54412;SDS011;41533;51.390;0.074;2023-03-14T04:31:52;4.32;;;0.50;;
54412;SDS011;41533;51.390;0.074;2023-03-14T04:34:19;1.90;;;0.60;;
54412;SDS011;41533;51.390;0.074;2023-03-14T04:36:51;2.55;;;0.70;;
54412;SDS011;41533;51.390;0.074;2023-03-14T04:39:24;0.60;;;0.52;;
54412;SDS011;41533;51.390;0.074;2023-03-14T04:41:59;1.08;;;0.60;;
54412;SDS011;41533;51.390;0.074;2023-03-14T04:44:27;1.38;;;0.70;;
54412;SDS011;41533;51.390;0.074;2023-03-14T04:46:54;1.52;;;0.93;;
54412;SDS011;41533;51.390;0.074;2023-03-14T04:49:22;3.47;;;0.80;;
54412;SDS011;41533;51.390;0.074;2023-03-14T04:51:49;1.30;;;0.63;;
54412;SDS011;41533;51.390;0.074;2023-03-14T04:54:19;3.03;;;0.80;;
54412;SDS011;41533;51.390;0.074;2023-03-14T04:56:50;2.97;;;0.57;;
54412;SDS011;41533;51.390;0.074;2023-03-14T04:59:18;3.45;;;0.77;;
54412;SDS011;41533;51.390;0.074;2023-03-14T05:01:45;1.98;;;0.52;;
54412;SDS011;41533;51.390;0.074;2023-03-14T05:04:24;1.65;;;0.80;;
54412;SDS011;41533;51.390;0.074;2023-03-14T05:07:14;4.75;;;0.90;;
54412;SDS011;41533;51.390;0.074;2023-03-14T05:09:48;5.20;;;1.15;;
54412;SDS011;41533;51.390;0.074;2023-03-14T05:12:45;5.35;;;0.70;;
54412;SDS011;41533;51.390;0.074;2023-03-14T05:15:35;5.55;;;1.05;;
54412;SDS011;41533;51.390;0.074;2023-03-14T05:18:40;2.50;;;0.70;;
54412;SDS011;41533;51.390;0.074;2023-03-14T05:21:27;1.45;;;0.43;;
54412;SDS011;41533;51.390;0.074;2023-03-14T05:24:15;3.83;;;0.73;;
54412;SDS011;41533;51.390;0.074;2023-03-14T05:27:08;4.22;;;0.73;;
54412;SDS011;41533;51.390;0.074;2023-03-14T05:30:05;4.57;;;1.00;;
54412;SDS011;41533;51.390;0.074;2023-03-14T05:32:40;10.18;;;1.02;;
54412;SDS011;41533;51.390;0.074;2023-03-14T05:35:17;3.88;;;0.85;;
54412;SDS011;41533;51.390;0.074;2023-03-14T05:38:04;3.88;;;1.00;;
54412;SDS011;41533;51.390;0.074;2023-03-14T05:40:44;1.95;;;1.00;;
54412;SDS011;41533;51.390;0.074;2023-03-14T05:43:38;4.22;;;0.90;;
54412;SDS011;41533;51.390;0.074;2023-03-14T05:46:18;1.65;;;0.80;;
54412;SDS011;41533;51.390;0.074;2023-03-14T05:49:08;5.43;;;0.88;;
54412;SDS011;41533;51.390;0.074;2023-03-14T05:51:56;3.28;;;0.60;;
54412;SDS011;41533;51.390;0.074;2023-03-14T05:54:23;2.20;;;1.20;;
54412;SDS011;41533;51.390;0.074;2023-03-14T05:57:16;3.70;;;0.80;;
54412;SDS011;41533;51.390;0.074;2023-03-14T05:59:57;9.02;;;0.95;;
54412;SDS011;41533;51.390;0.074;2023-03-14T06:02:42;5.88;;;0.63;;
54412;SDS011;41533;51.390;0.074;2023-03-14T06:05:19;5.10;;;0.60;;
54412;SDS011;41533;51.390;0.074;2023-03-14T06:07:46;6.72;;;1.40;;
54412;SDS011;41533;51.390;0.074;2023-03-14T06:10:15;3.63;;;0.85;;
54412;SDS011;41533;51.390;0.074;2023-03-14T06:12:42;5.47;;;1.13;;
54412;SDS011;41533;51.390;0.074;2023-03-14T06:15:09;6.80;;;1.30;;
54412;SDS011;41533;51.390;0.074;2023-03-14T06:17:38;2.63;;;1.20;;
54412;SDS011;41533;51.390;0.074;2023-03-14T06:20:10;3.22;;;1.23;;
54412;SDS011;41533;51.390;0.074;2023-03-14T06:22:37;1.15;;;0.77;;
54412;SDS011;41533;51.390;0.074;2023-03-14T06:25:06;4.38;;;1.05;;
54412;SDS011;41533;51.390;0.074;2023-03-14T06:27:34;4.07;;;1.00;;
54412;SDS011;41533;51.390;0.074;2023-03-14T06:30:02;4.47;;;1.17;;
54412;SDS011;41533;51.390;0.074;2023-03-14T06:32:31;3.53;;;1.05;;
54412;SDS011;41533;51.390;0.074;2023-03-14T06:35:03;6.22;;;1.02;;
54412;SDS011;41533;51.390;0.074;2023-03-14T06:37:35;4.65;;;0.98;;
54412;SDS011;41533;51.390;0.074;2023-03-14T06:40:03;5.63;;;1.48;;
54412;SDS011;41533;51.390;0.074;2023-03-14T06:42:58;12.35;;;1.13;;
54412;SDS011;41533;51.390;0.074;2023-03-14T06:45:27;6.22;;;0.98;;
54412;SDS011;41533;51.390;0.074;2023-03-14T06:47:56;6.38;;;1.30;;
54412;SDS011;41533;51.390;0.074;2023-03-14T06:50:31;5.13;;;0.90;;
54412;SDS011;41533;51.390;0.074;2023-03-14T06:52:58;5.18;;;1.27;;
54412;SDS011;41533;51.390;0.074;2023-03-14T06:55:27;6.07;;;1.00;;
54412;SDS011;41533;51.390;0.074;2023-03-14T06:57:54;6.28;;;1.25;;
54412;SDS011;41533;51.390;0.074;2023-03-14T07:00:21;1.80;;;1.10;;
54412;SDS011;41533;51.390;0.074;2023-03-14T07:02:52;4.80;;;0.65;;
54412;SDS011;41533;51.390;0.074;2023-03-14T07:05:32;5.55;;;1.55;;
54412;SDS011;41533;51.390;0.074;2023-03-14T07:07:59;3.67;;;1.13;;
54412;SDS011;41533;51.390;0.074;2023-03-14T07:10:26;7.43;;;1.58;;
54412;SDS011;41533;51.390;0.074;2023-03-14T07:12:54;2.92;;;1.10;;
54412;SDS011;41533;51.390;0.074;2023-03-14T07:15:25;2.05;;;1.00;;
54412;SDS011;41533;51.390;0.074;2023-03-14T07:17:56;4.55;;;1.05;;
54412;SDS011;41533;51.390;0.074;2023-03-14T07:20:24;3.08;;;1.10;;
54412;SDS011;41533;51.390;0.074;2023-03-14T07:22:52;3.58;;;0.82;;
54412;SDS011;41533;51.390;0.074;2023-03-14T07:25:34;5.53;;;1.25;;
54412;SDS011;41533;51.390;0.074;2023-03-14T07:28:01;2.53;;;1.27;;
54412;SDS011;41533;51.390;0.074;2023-03-14T07:30:29;4.22;;;1.27;;
54412;SDS011;41533;51.390;0.074;2023-03-14T07:32:58;11.85;;;2.55;;
54412;SDS011;41533;51.390;0.074;2023-03-14T07:35:27;5.88;;;1.30;;
54412;SDS011;41533;51.390;0.074;2023-03-14T07:37:54;9.40;;;1.52;;
54412;SDS011;41533;51.390;0.074;2023-03-14T07:40:28;7.65;;;0.70;;
54412;SDS011;41533;51.390;0.074;2023-03-14T07:42:56;6.38;;;0.80;;
54412;SDS011;41533;51.390;0.074;2023-03-14T07:45:35;2.30;;;1.13;;
54412;SDS011;41533;51.390;0.074;2023-03-14T07:48:08;3.70;;;0.65;;
54412;SDS011;41533;51.390;0.074;2023-03-14T07:50:35;5.55;;;0.85;;
54412;SDS011;41533;51.390;0.074;2023-03-14T07:53:03;6.10;;;0.98;;
54412;SDS011;41533;51.390;0.074;2023-03-14T07:55:30;5.80;;;1.70;;
54412;SDS011;41533;51.390;0.074;2023-03-14T07:57:57;4.20;;;0.70;;
54412;SDS011;41533;51.390;0.074;2023-03-14T08:00:24;8.88;;;1.35;;
54412;SDS011;41533;51.390;0.074;2023-03-14T08:02:52;4.72;;;0.95;;
54412;SDS011;41533;51.390;0.074;2023-03-14T08:05:19;1.13;;;0.47;;
54412;SDS011;41533;51.390;0.074;2023-03-14T08:07:46;4.20;;;0.68;;
54412;SDS011;41533;51.390;0.074;2023-03-14T08:10:14;2.30;;;0.82;;
54412;SDS011;41533;51.390;0.074;2023-03-14T08:12:51;4.88;;;1.10;;
54412;SDS011;41533;51.390;0.074;2023-03-14T08:15:20;3.70;;;0.50;;
54412;SDS011;41533;51.390;0.074;2023-03-14T08:17:47;6.88;;;0.63;;
54412;SDS011;41533;51.390;0.074;2023-03-14T08:20:18;6.68;;;0.82;;
54412;SDS011;41533;51.390;0.074;2023-03-14T08:22:45;0.85;;;0.47;;
54412;SDS011;41533;51.390;0.074;2023-03-14T08:25:13;1.02;;;0.52;;
54412;SDS011;41533;51.390;0.074;2023-03-14T08:27:40;3.15;;;0.75;;
54412;SDS011;41533;51.390;0.074;2023-03-14T08:30:09;1.95;;;0.73;;
54412;SDS011;41533;51.390;0.074;2023-03-14T08:32:37;1.08;;;0.82;;
54412;SDS011;41533;51.390;0.074;2023-03-14T08:35:04;0.77;;;0.63;;
54412;SDS011;41533;51.390;0.074;2023-03-14T08:37:32;0.77;;;0.50;;
54412;SDS011;41533;51.390;0.074;2023-03-14T08:40:00;0.52;;;0.52;;
54412;SDS011;41533;51.390;0.074;2023-03-14T08:42:27;0.73;;;0.57;;
54412;SDS011;41533;51.390;0.074;2023-03-14T08:44:54;1.27;;;1.02;;
54412;SDS011;41533;51.390;0.074;2023-03-14T08:47:21;1.33;;;0.70;;
54412;SDS011;41533;51.390;0.074;2023-03-14T08:49:49;0.60;;;0.40;;
54412;SDS011;41533;51.390;0.074;2023-03-14T08:52:16;1.25;;;0.60;;
54412;SDS011;41533;51.390;0.074;2023-03-14T08:54:43;1.38;;;0.60;;
54412;SDS011;41533;51.390;0.074;2023-03-14T08:57:11;2.65;;;0.70;;
54412;SDS011;41533;51.390;0.074;2023-03-14T08:59:38;1.00;;;0.43;;
54412;SDS011;41533;51.390;0.074;2023-03-14T09:02:05;0.40;;;0.40;;
54412;SDS011;41533;51.390;0.074;2023-03-14T09:04:32;0.65;;;0.38;;
54412;SDS011;41533;51.390;0.074;2023-03-14T09:07:00;0.90;;;0.45;;
54412;SDS011;41533;51.390;0.074;2023-03-14T09:09:27;0.75;;;0.47;;
54412;SDS011;41533;51.390;0.074;2023-03-14T09:11:54;0.22;;;0.20;;
54412;SDS011;41533;51.390;0.074;2023-03-14T09:14:22;0.73;;;0.50;;
54412;SDS011;41533;51.390;0.074;2023-03-14T09:16:49;0.40;;;0.40;;
54412;SDS011;41533;51.390;0.074;2023-03-14T09:19:17;0.52;;;0.47;;
54412;SDS011;41533;51.390;0.074;2023-03-14T09:21:44;0.40;;;0.40;;
54412;SDS011;41533;51.390;0.074;2023-03-14T09:24:11;0.40;;;0.40;;
54412;SDS011;41533;51.390;0.074;2023-03-14T09:26:39;0.20;;;0.20;;
54412;SDS011;41533;51.390;0.074;2023-03-14T09:29:06;0.20;;;0.20;;
54412;SDS011;41533;51.390;0.074;2023-03-14T09:31:33;0.30;;;0.30;;
54412;SDS011;41533;51.390;0.074;2023-03-14T09:34:01;0.40;;;0.30;;
54412;SDS011;41533;51.390;0.074;2023-03-14T09:36:28;1.55;;;0.55;;
54412;SDS011;41533;51.390;0.074;2023-03-14T09:38:56;0.20;;;0.20;;
54412;SDS011;41533;51.390;0.074;2023-03-14T09:41:25;0.65;;;0.50;;
54412;SDS011;41533;51.390;0.074;2023-03-14T09:43:57;1.10;;;0.60;;
54412;SDS011;41533;51.390;0.074;2023-03-14T09:46:25;0.63;;;0.50;;
54412;SDS011;41533;51.390;0.074;2023-03-14T09:48:53;0.75;;;0.63;;
54412;SDS011;41533;51.390;0.074;2023-03-14T09:51:20;0.50;;;0.45;;
54412;SDS011;41533;51.390;0.074;2023-03-14T09:53:50;0.98;;;0.77;;
54412;SDS011;41533;51.390;0.074;2023-03-14T09:56:19;3.70;;;0.95;;
54412;SDS011;41533;51.390;0.074;2023-03-14T09:58:49;0.68;;;0.68;;
54412;SDS011;41533;51.390;0.074;2023-03-14T10:01:20;1.17;;;0.52;;
54412;SDS011;41533;51.390;0.074;2023-03-14T10:03:49;1.38;;;0.55;;
54412;SDS011;41533;51.390;0.074;2023-03-14T10:06:17;1.05;;;0.50;;
54412;SDS011;41533;51.390;0.074;2023-03-14T10:08:45;1.48;;;0.80;;
54412;SDS011;41533;51.390;0.074;2023-03-14T10:11:16;3.00;;;0.80;;
54412;SDS011;41533;51.390;0.074;2023-03-14T10:16:33;2.55;;;0.80;;
54412;SDS011;41533;51.390;0.074;2023-03-14T10:19:06;0.85;;;0.60;;
54412;SDS011;41533;51.390;0.074;2023-03-14T10:21:37;0.60;;;0.60;;
54412;SDS011;41533;51.390;0.074;2023-03-14T10:26:47;4.20;;;0.75;;
54412;SDS011;41533;51.390;0.074;2023-03-14T10:29:14;2.60;;;0.85;;
54412;SDS011;41533;51.390;0.074;2023-03-14T10:31:47;1.17;;;0.68;;
54412;SDS011;41533;51.390;0.074;2023-03-14T10:34:16;1.88;;;0.73;;
54412;SDS011;41533;51.390;0.074;2023-03-14T10:36:44;2.35;;;0.63;;
54412;SDS011;41533;51.390;0.074;2023-03-14T10:39:54;3.63;;;0.70;;
54412;SDS011;41533;51.390;0.074;2023-03-14T10:45:05;2.25;;;1.00;;
54412;SDS011;41533;51.390;0.074;2023-03-14T10:47:34;1.85;;;0.90;;
54412;SDS011;41533;51.390;0.074;2023-03-14T10:50:19;3.40;;;1.10;;
54412;SDS011;41533;51.390;0.074;2023-03-14T10:52:48;1.23;;;0.68;;
54412;SDS011;41533;51.390;0.074;2023-03-14T10:55:49;2.63;;;0.77;;
54412;SDS011;41533;51.390;0.074;2023-03-14T10:58:20;1.48;;;0.60;;
54412;SDS011;41533;51.390;0.074;2023-03-14T11:00:50;3.70;;;0.93;;
54412;SDS011;41533;51.390;0.074;2023-03-14T11:03:18;3.83;;;0.95;;
54412;SDS011;41533;51.390;0.074;2023-03-14T11:05:57;2.83;;;0.90;;
54412;SDS011;41533;51.390;0.074;2023-03-14T11:08:41;4.68;;;0.80;;
54412;SDS011;41533;51.390;0.074;2023-03-14T11:11:12;1.20;;;0.80;;
54412;SDS011;41533;51.390;0.074;2023-03-14T11:13:43;1.45;;;1.00;;
54412;SDS011;41533;51.390;0.074;2023-03-14T11:18:57;3.95;;;0.80;;
54412;SDS011;41533;51.390;0.074;2023-03-14T11:26:39;1.77;;;0.75;;
54412;SDS011;41533;51.390;0.074;2023-03-14T11:29:19;2.93;;;1.10;;
54412;SDS011;41533;51.390;0.074;2023-03-14T11:31:47;0.80;;;0.55;;
54412;SDS011;41533;51.390;0.074;2023-03-14T11:37:01;1.40;;;0.70;;
54412;SDS011;41533;51.390;0.074;2023-03-14T11:39:39;4.57;;;1.00;;
54412;SDS011;41533;51.390;0.074;2023-03-14T11:42:08;1.08;;;0.80;;
54412;SDS011;41533;51.390;0.074;2023-03-14T11:44:38;1.70;;;0.93;;
54412;SDS011;41533;51.390;0.074;2023-03-14T11:47:15;1.35;;;0.77;;
54412;SDS011;41533;51.390;0.074;2023-03-14T11:49:53;4.60;;;1.08;;
54412;SDS011;41533;51.390;0.074;2023-03-14T11:52:25;1.98;;;0.90;;
54412;SDS011;41533;51.390;0.074;2023-03-14T11:57:22;1.38;;;0.60;;
54412;SDS011;41533;51.390;0.074;2023-03-14T12:10:24;4.00;;;0.77;;
54412;SDS011;41533;51.390;0.074;2023-03-14T12:12:51;3.22;;;0.75;;
54412;SDS011;41533;51.390;0.074;2023-03-14T12:15:20;3.55;;;1.05;;
54412;SDS011;41533;51.390;0.074;2023-03-14T12:17:53;2.80;;;1.30;;
54412;SDS011;41533;51.390;0.074;2023-03-14T12:20:22;10.15;;;1.27;;
54412;SDS011;41533;51.390;0.074;2023-03-14T12:22:54;5.80;;;1.10;;
54412;SDS011;41533;51.390;0.074;2023-03-14T12:25:29;4.28;;;1.25;;
54412;SDS011;41533;51.390;0.074;2023-03-14T12:35:39;4.45;;;1.15;;
54412;SDS011;41533;51.390;0.074;2023-03-14T12:38:19;7.53;;;1.02;;
54412;SDS011;41533;51.390;0.074;2023-03-14T12:41:01;3.38;;;0.93;;
54412;SDS011;41533;51.390;0.074;2023-03-14T12:43:31;6.57;;;1.70;;
54412;SDS011;41533;51.390;0.074;2023-03-14T12:46:06;3.03;;;0.82;;
54412;SDS011;41533;51.390;0.074;2023-03-14T12:48:34;3.70;;;1.95;;
54412;SDS011;41533;51.390;0.074;2023-03-14T12:51:02;3.55;;;1.17;;
54412;SDS011;41533;51.390;0.074;2023-03-14T12:56:20;4.70;;;0.93;;
54412;SDS011;41533;51.390;0.074;2023-03-14T13:01:31;3.90;;;1.45;;
54412;SDS011;41533;51.390;0.074;2023-03-14T13:04:04;6.35;;;1.15;;
54412;SDS011;41533;51.390;0.074;2023-03-14T13:12:10;3.03;;;1.10;;
54412;SDS011;41533;51.390;0.074;2023-03-14T13:14:45;3.55;;;0.80;;
54412;SDS011;41533;51.390;0.074;2023-03-14T13:17:14;5.72;;;1.15;;
54412;SDS011;41533;51.390;0.074;2023-03-14T13:20:03;8.30;;;1.17;;
54412;SDS011;41533;51.390;0.074;2023-03-14T13:22:33;5.85;;;1.40;;
54412;SDS011;41533;51.390;0.074;2023-03-14T13:25:05;1.50;;;0.80;;
54412;SDS011;41533;51.390;0.074;2023-03-14T13:27:33;2.78;;;1.20;;
54412;SDS011;41533;51.390;0.074;2023-03-14T13:32:44;2.05;;;0.90;;
54412;SDS011;41533;51.390;0.074;2023-03-14T13:35:16;6.05;;;1.33;;
54412;SDS011;41533;51.390;0.074;2023-03-14T13:37:44;5.50;;;1.55;;
54412;SDS011;41533;51.390;0.074;2023-03-14T13:40:24;6.50;;;1.50;;
54412;SDS011;41533;51.390;0.074;2023-03-14T13:43:03;1.88;;;0.85;;
54412;SDS011;41533;51.390;0.074;2023-03-14T13:45:31;3.65;;;0.75;;
54412;SDS011;41533;51.390;0.074;2023-03-14T13:47:58;6.88;;;1.00;;
54412;SDS011;41533;51.390;0.074;2023-03-14T13:50:25;5.32;;;1.20;;
54412;SDS011;41533;51.390;0.074;2023-03-14T13:52:56;4.95;;;1.05;;
54412;SDS011;41533;51.390;0.074;2023-03-14T13:55:24;3.72;;;0.82;;
54412;SDS011;41533;51.390;0.074;2023-03-14T13:57:52;5.38;;;1.42;;
54412;SDS011;41533;51.390;0.074;2023-03-14T14:00:26;1.73;;;0.88;;
54412;SDS011;41533;51.390;0.074;2023-03-14T14:02:54;4.70;;;0.73;;
54412;SDS011;41533;51.390;0.074;2023-03-14T14:05:22;1.35;;;0.75;;
54412;SDS011;41533;51.390;0.074;2023-03-14T14:07:49;1.52;;;0.90;;
54412;SDS011;41533;51.390;0.074;2023-03-14T14:10:18;5.18;;;1.20;;
54412;SDS011;41533;51.390;0.074;2023-03-14T14:12:47;3.70;;;0.60;;
54412;SDS011;41533;51.390;0.074;2023-03-14T14:15:19;1.98;;;0.77;;
54412;SDS011;41533;51.390;0.074;2023-03-14T14:17:54;1.40;;;0.80;;
54412;SDS011;41533;51.390;0.074;2023-03-14T14:22:58;2.65;;;0.90;;
54412;SDS011;41533;51.390;0.074;2023-03-14T14:25:27;2.10;;;0.70;;
54412;SDS011;41533;51.390;0.074;2023-03-14T14:27:55;6.65;;;1.52;;
54412;SDS011;41533;51.390;0.074;2023-03-14T14:30:30;1.92;;;0.90;;
54412;SDS011;41533;51.390;0.074;2023-03-14T14:33:18;5.25;;;1.30;;
54412;SDS011;41533;51.390;0.074;2023-03-14T14:35:53;2.60;;;0.80;;
54412;SDS011;41533;51.390;0.074;2023-03-14T14:38:21;3.75;;;1.00;;
54412;SDS011;41533;51.390;0.074;2023-03-14T14:40:49;1.73;;;0.93;;
54412;SDS011;41533;51.390;0.074;2023-03-14T14:43:19;1.52;;;0.57;;
54412;SDS011;41533;51.390;0.074;2023-03-14T14:45:49;1.40;;;0.73;;
54412;SDS011;41533;51.390;0.074;2023-03-14T14:48:19;2.05;;;0.80;;
54412;SDS011;41533;51.390;0.074;2023-03-14T14:53:23;4.40;;;1.38;;
54412;SDS011;41533;51.390;0.074;2023-03-14T14:55:52;5.82;;;1.00;;
54412;SDS011;41533;51.390;0.074;2023-03-14T14:58:24;3.10;;;0.98;;
54412;SDS011;41533;51.390;0.074;2023-03-14T15:00:59;3.03;;;0.57;;
54412;SDS011;41533;51.390;0.074;2023-03-14T15:03:30;1.17;;;0.75;;
54412;SDS011;41533;51.390;0.074;2023-03-14T15:05:58;6.78;;;1.08;;
54412;SDS011;41533;51.390;0.074;2023-03-14T15:08:26;1.95;;;0.85;;
54412;SDS011;41533;51.390;0.074;2023-03-14T15:10:55;0.70;;;0.70;;
54412;SDS011;41533;51.390;0.074;2023-03-14T15:13:22;0.88;;;0.80;;
54412;SDS011;41533;51.390;0.074;2023-03-14T15:15:50;1.50;;;0.80;;
54412;SDS011;41533;51.390;0.074;2023-03-14T15:18:24;1.88;;;0.90;;
54412;SDS011;41533;51.390;0.074;2023-03-14T15:20:51;3.75;;;0.75;;
54412;SDS011;41533;51.390;0.074;2023-03-14T15:23:19;3.42;;;0.80;;
54412;SDS011;41533;51.390;0.074;2023-03-14T15:25:46;2.47;;;0.60;;
54412;SDS011;41533;51.390;0.074;2023-03-14T15:28:22;2.33;;;1.02;;
54412;SDS011;41533;51.390;0.074;2023-03-14T15:30:51;4.15;;;0.93;;
54412;SDS011;41533;51.390;0.074;2023-03-14T15:33:18;2.17;;;0.68;;
54412;SDS011;41533;51.390;0.074;2023-03-14T15:35:46;0.88;;;0.73;;
54412;SDS011;41533;51.390;0.074;2023-03-14T15:38:15;1.20;;;0.80;;
54412;SDS011;41533;51.390;0.074;2023-03-14T15:40:43;3.22;;;0.80;;
54412;SDS011;41533;51.390;0.074;2023-03-14T15:43:11;1.48;;;0.60;;
54412;SDS011;41533;51.390;0.074;2023-03-14T15:45:38;2.67;;;0.80;;
54412;SDS011;41533;51.390;0.074;2023-03-14T15:48:06;2.20;;;0.93;;
54412;SDS011;41533;51.390;0.074;2023-03-14T15:50:33;3.22;;;0.88;;
54412;SDS011;41533;51.390;0.074;2023-03-14T15:53:00;2.50;;;0.80;;
54412;SDS011;41533;51.390;0.074;2023-03-14T15:55:27;1.08;;;0.57;;
54412;SDS011;41533;51.390;0.074;2023-03-14T15:57:55;2.20;;;0.95;;
54412;SDS011;41533;51.390;0.074;2023-03-14T16:00:22;0.68;;;0.40;;
54412;SDS011;41533;51.390;0.074;2023-03-14T16:02:51;2.38;;;0.73;;
54412;SDS011;41533;51.390;0.074;2023-03-14T16:05:18;11.63;;;1.00;;
54412;SDS011;41533;51.390;0.074;2023-03-14T16:07:48;2.50;;;0.73;;
54412;SDS011;41533;51.390;0.074;2023-03-14T16:10:16;2.40;;;1.08;;
54412;SDS011;41533;51.390;0.074;2023-03-14T16:12:43;8.73;;;1.25;;
54412;SDS011;41533;51.390;0.074;2023-03-14T16:15:10;2.90;;;0.88;;
54412;SDS011;41533;51.390;0.074;2023-03-14T16:17:38;2.45;;;0.60;;
54412;SDS011;41533;51.390;0.074;2023-03-14T16:20:07;1.95;;;0.82;;